Time;durP1;ratioP1;P1;durP2;ratioP2;P2;SDS_P1;SDS_P2;PMS_P1;PMS_P2;Temp;Humidity;BMP_temperature;BMP_pressure;BME280_temperature;BME280_humidity;BME280_pressure;Samples;Min_cycle;Max_cycle;Signal;HPM_P1;HPM_P2
2021/08/25 00:00:03;;;;;;;;;;;;;;;24.50;53.65;99591.84;2072505;28;19929;-65
2021/08/25 00:01:03;;;;;;;;;;;;;;;24.49;53.63;99592.03;2071382;28;19921;-65
2021/08/25 00:02:04;;;;;;;;;;;;;;;24.50;53.65;99585.47;2074837;28;20037;-65
2021/08/25 00:03:05;;;;;;;;;;;;;;;24.49;53.59;99586.53;2074033;28;19925;-65
2021/08/25 00:04:06;;;;;;;;;;;;;;;24.49;53.66;99583.78;2068227;28;19928;-65
2021/08/25 00:05:07;;;;;;;;;;;;;;;24.48;53.67;99582.09;2075255;28;19940;-65
2021/08/25 00:06:08;;;;;;;;;;;;;;;24.47;53.74;99585.88;2072207;28;20396;-65
2021/08/25 00:07:08;;;;;;;;;;;;;;;24.46;53.78;99578.69;2069986;28;20286;-65
2021/08/25 00:08:08;;;;;;;;;;;;;;;24.47;53.94;99585.88;2070645;28;20417;-65
2021/08/25 00:09:09;;;;;;;;;;;;;;;24.47;53.77;99581.22;2080320;28;19952;-65
2021/08/25 00:10:09;;;;;;;;;;;;;;;24.46;53.78;99585.03;2076816;28;19917;-65
2021/08/25 00:11:09;;;;;;;;;;;;;;;24.47;53.89;99585.88;2081150;28;19948;-65
2021/08/25 00:12:10;;;;;;;;;;;;;;;24.47;53.93;99588.63;2072105;28;19988;-66
2021/08/25 00:13:10;;;;;;;;;;;;;;;24.47;53.92;99588.63;2068016;28;19980;-65
2021/08/25 00:14:11;;;;;;;;;;;;;;;24.46;54.04;99590.53;2068105;28;19926;-64
2021/08/25 00:15:11;;;;;;;;;;;;;;;24.46;53.90;99587.78;2089586;28;19943;-65
2021/08/25 00:16:12;;;;;;;;;;;;;;;24.46;53.98;99585.03;2079669;28;19925;-65
2021/08/25 00:17:12;;;;;;;;;;;;;;;24.47;54.09;99585.88;2066227;28;19913;-66
2021/08/25 00:18:13;;;;;;;;;;;;;;;24.47;53.97;99580.38;2069371;28;19921;-66
2021/08/25 00:19:13;;;;;;;;;;;;;;;24.47;53.91;99581.22;2067429;28;19975;-65
2021/08/25 00:20:13;;;;;;;;;;;;;;;24.47;53.93;99580.38;2065366;28;20467;-65
2021/08/25 00:21:14;;;;;;;;;;;;;;;24.46;53.94;99574.00;2069074;28;19948;-65
2021/08/25 00:22:15;;;;;;;;;;;;;;;24.48;53.92;99576.59;2072891;28;20007;-66
2021/08/25 00:23:15;;;;;;;;;;;;;;;24.48;53.97;99582.09;2063571;28;20387;-64
2021/08/25 00:24:15;;;;;;;;;;;;;;;24.48;53.92;99576.59;2064763;28;19960;-65
2021/08/25 00:25:16;;;;;;;;;;;;;;;24.47;53.89;99574.84;2066149;28;19917;-65
2021/08/25 00:26:16;;;;;;;;;;;;;;;24.48;53.84;99571.06;2065706;28;19925;-64
2021/08/25 00:27:17;;;;;;;;;;;;;;;24.47;54.05;99564.69;2066271;28;19913;-65
2021/08/25 00:28:17;;;;;;;;;;;;;;;24.46;53.92;99567.66;2062833;28;19996;-65
2021/08/25 00:29:17;;;;;;;;;;;;;;;24.47;53.98;99566.59;2063416;28;19926;-65
2021/08/25 00:30:17;;;;;;;;;;;;;;;24.47;54.09;99563.84;2065233;28;19917;-65
2021/08/25 00:31:18;;;;;;;;;;;;;;;24.46;54.06;99557.47;2069320;28;19963;-63
2021/08/25 00:32:18;;;;;;;;;;;;;;;24.47;53.96;99555.56;2068626;28;20396;-65
2021/08/25 00:33:18;;;;;;;;;;;;;;;24.48;54.06;99558.13;2069753;28;19948;-65
2021/08/25 00:34:19;;;;;;;;;;;;;;;24.47;54.21;99553.66;2067683;28;20106;-65
2021/08/25 00:35:19;;;;;;;;;;;;;;;24.47;54.00;99561.09;2069970;28;19921;-65
2021/08/25 00:36:19;;;;;;;;;;;;;;;24.47;54.05;99561.09;2070162;28;19925;-64
2021/08/25 00:37:19;;;;;;;;;;;;;;;24.46;54.14;99556.63;2063016;28;19921;-66
2021/08/25 00:38:20;;;;;;;;;;;;;;;24.47;54.07;99563.84;2061939;28;19929;-65
2021/08/25 00:39:20;;;;;;;;;;;;;;;24.46;54.15;99559.38;2065595;28;19921;-64
2021/08/25 00:40:20;;;;;;;;;;;;;;;24.46;54.21;99557.47;2067442;28;20495;-64
2021/08/25 00:41:21;;;;;;;;;;;;;;;24.46;54.15;99551.13;2067692;28;20464;-65
2021/08/25 00:42:21;;;;;;;;;;;;;;;24.45;54.28;99549.38;2071365;28;19918;-65
2021/08/25 00:43:21;;;;;;;;;;;;;;;24.47;54.17;99547.31;2067237;28;19917;-64
2021/08/25 00:44:22;;;;;;;;;;;;;;;24.45;54.13;99544.75;2065792;28;19927;-65
2021/08/25 00:45:22;;;;;;;;;;;;;;;24.46;54.07;99540.09;2067569;28;19999;-66
2021/08/25 00:46:22;;;;;;;;;;;;;;;24.46;54.06;99534.59;2067589;28;19922;-64
2021/08/25 00:47:23;;;;;;;;;;;;;;;24.46;54.09;99540.09;2066977;28;19991;-65
2021/08/25 00:48:23;;;;;;;;;;;;;;;24.46;54.12;99534.59;2065872;28;20316;-65
2021/08/25 00:49:23;;;;;;;;;;;;;;;24.46;54.28;99542.84;2067277;28;19936;-64
2021/08/25 00:50:24;;;;;;;;;;;;;;;24.47;54.29;99536.28;2068861;28;20353;-65
2021/08/25 00:51:24;;;;;;;;;;;;;;;24.46;54.32;99529.09;2067133;28;20404;-64
2021/08/25 00:52:25;;;;;;;;;;;;;;;24.47;54.33;99530.78;2077292;28;20511;-66
2021/08/25 00:53:25;;;;;;;;;;;;;;;24.46;54.33;99532.69;2067625;28;19929;-64
2021/08/25 00:54:25;;;;;;;;;;;;;;;24.47;54.16;99530.78;2068493;28;19918;-65
2021/08/25 00:55:26;;;;;;;;;;;;;;;24.48;54.26;99529.75;2071853;28;19917;-66
2021/08/25 00:56:26;;;;;;;;;;;;;;;24.46;54.38;99526.34;2072228;28;19971;-65
2021/08/25 00:57:27;;;;;;;;;;;;;;;24.46;54.25;99527.19;2072897;28;19920;-65
2021/08/25 00:58:27;;;;;;;;;;;;;;;24.48;54.26;99527.00;2072726;28;19913;-65
2021/08/25 00:59:27;;;;;;;;;;;;;;;24.47;54.42;99528.03;2073084;28;19914;-65
2021/08/25 01:00:28;;;;;;;;;;;;;;;24.47;54.39;99528.03;2076726;28;19949;-65
2021/08/25 01:01:46;;;;;;;;;;;;;;;24.46;54.38;99529.09;2080480;28;19945;-65
2021/08/25 01:02:55;;;;;;;;;;;;;;;24.45;54.39;99519.06;2077029;28;20034;-65
2021/08/25 01:03:57;;;;;;;;;;;;;;;24.45;54.47;99522.69;2071749;28;19928;-65
2021/08/25 01:04:58;;;;;;;;;;;;;;;24.46;54.39;99527.19;2065991;28;20064;-64
2021/08/25 01:05:59;;;;;;;;;;;;;;;24.46;54.45;99534.59;2071804;28;19918;-65
2021/08/25 01:07:01;;;;;;;;;;;;;;;24.47;54.38;99530.78;2078121;28;19913;-65
2021/08/25 01:08:02;;;;;;;;;;;;;;;24.47;54.35;99520.59;2070378;28;20451;-65
2021/08/25 01:09:03;;;;;;;;;;;;;;;24.47;54.24;99525.25;2074693;28;19976;-65
2021/08/25 01:10:23;;;;;;;;;;;;;;;24.49;54.21;99521.25;2071684;28;19929;-65
2021/08/25 01:11:23;;;;;;;;;;;;;;;24.47;54.24;99519.75;2069613;28;19925;-65
2021/08/25 01:12:26;;;;;;;;;;;;;;;24.46;54.35;99524.44;2069122;28;19921;-65
2021/08/25 01:13:27;;;;;;;;;;;;;;;24.47;54.51;99514.25;2067318;28;19920;-65
2021/08/25 01:14:28;;;;;;;;;;;;;;;24.46;54.52;99518.06;2066622;28;19910;-65
2021/08/25 01:15:29;;;;;;;;;;;;;;;24.46;54.46;99513.41;2062983;28;19920;-65
2021/08/25 01:16:30;;;;;;;;;;;;;;;24.46;54.50;99512.56;2063604;28;20016;-64
2021/08/25 01:17:30;;;;;;;;;;;;;;;24.46;54.51;99518.06;2066176;28;19917;-65
2021/08/25 01:18:31;;;;;;;;;;;;;;;24.44;54.57;99520.97;2066078;28;19921;-65
2021/08/25 01:19:35;;;;;;;;;;;;;;;24.44;54.54;99520.13;2070585;28;19995;-65
2021/08/25 01:20:36;;;;;;;;;;;;;;;24.45;54.53;99532.84;2071702;28;19913;-65
2021/08/25 01:21:36;;;;;;;;;;;;;;;24.45;54.44;99525.47;2066266;28;19943;-65
2021/08/25 01:22:41;;;;;;;;;;;;;;;24.44;54.48;99526.50;2064258;28;19925;-65
2021/08/25 01:23:43;;;;;;;;;;;;;;;24.46;54.67;99529.09;2066941;28;20004;-65
2021/08/25 01:24:44;;;;;;;;;;;;;;;24.45;54.56;99521.81;2068844;28;19988;-64
2021/08/25 01:25:45;;;;;;;;;;;;;;;24.44;54.47;99518.22;2067475;28;19996;-65
2021/08/25 01:26:49;;;;;;;;;;;;;;;24.46;54.66;99512.56;2073068;28;19921;-66
2021/08/25 01:27:54;;;;;;;;;;;;;;;24.45;54.61;99510.81;2070628;28;19917;-64
2021/08/25 01:28:56;;;;;;;;;;;;;;;24.44;54.46;99509.13;2066087;28;20431;-65
2021/08/25 01:29:58;;;;;;;;;;;;;;;24.43;54.60;99504.66;2066630;28;20556;-65
2021/08/25 01:30:58;;;;;;;;;;;;;;;24.44;54.58;99503.59;2069120;28;19984;-64
2021/08/25 01:31:59;;;;;;;;;;;;;;;24.44;54.49;99498.09;2068340;28;19921;-65
2021/08/25 01:32:59;;;;;;;;;;;;;;;24.45;54.67;99506.16;2059244;28;19953;-65
2021/08/25 01:34:04;;;;;;;;;;;;;;;24.44;54.62;99504.44;2063238;28;19913;-64
2021/08/25 01:35:05;;;;;;;;;;;;;;;24.45;54.76;99505.28;2066955;28;20300;-65
2021/08/25 01:36:11;;;;;;;;;;;;;;;24.46;54.55;99509.81;2067645;28;20321;-64
2021/08/25 01:37:11;;;;;;;;;;;;;;;24.46;54.57;99507.03;2069525;28;20384;-64
2021/08/25 01:38:31;;;;;;;;;;;;;;;24.44;54.52;99515.47;2063015;28;20340;-64
2021/08/25 01:39:31;;;;;;;;;;;;;;;24.46;54.47;99507.91;2069186;28;19917;-64
2021/08/25 01:40:32;;;;;;;;;;;;;;;24.45;54.47;99508.94;2066825;28;19922;-65
2021/08/25 01:41:32;;;;;;;;;;;;;;;24.46;54.55;99512.56;2071683;28;19925;-65
2021/08/25 01:42:32;;;;;;;;;;;;;;;24.46;54.50;99513.41;2088481;28;20425;-64
2021/08/25 01:43:36;;;;;;;;;;;;;;;24.46;54.60;99518.06;2086640;28;20268;-65
2021/08/25 01:44:36;;;;;;;;;;;;;;;24.47;54.45;99522.50;2067687;28;19917;-65
2021/08/25 01:45:37;;;;;;;;;;;;;;;24.46;54.45;99524.44;2072979;28;19924;-65
2021/08/25 01:46:38;;;;;;;;;;;;;;;24.45;54.52;99527.34;2065257;28;19913;-65
2021/08/25 01:47:39;;;;;;;;;;;;;;;24.46;54.68;99527.19;2069631;28;19921;-65
2021/08/25 01:48:39;;;;;;;;;;;;;;;24.46;54.57;99537.34;2070989;28;19922;-66
2021/08/25 01:49:39;;;;;;;;;;;;;;;24.46;54.58;99534.59;2068084;28;19928;-66
2021/08/25 01:50:40;;;;;;;;;;;;;;;24.45;54.59;99538.34;2058695;28;19922;-67
2021/08/25 01:51:41;;;;;;;;;;;;;;;24.44;54.45;99525.63;2060226;28;19956;-66
2021/08/25 01:52:41;;;;;;;;;;;;;;;24.42;54.41;99544.28;2062745;28;19909;-70
2021/08/25 01:53:41;;;;;;;;;;;;;;;24.39;53.73;99535.34;2070081;28;19965;-68
2021/08/25 01:54:43;;;;;;;;;;;;;;;24.39;53.35;99534.50;2059962;28;19916;-68
2021/08/25 01:55:43;;;;;;;;;;;;;;;24.39;53.59;99531.75;2060868;28;19921;-67
2021/08/25 01:56:44;;;;;;;;;;;;;;;24.38;53.33;99544.66;2060885;28;20248;-68
2021/08/25 01:57:44;;;;;;;;;;;;;;;24.34;53.12;99537.84;2059820;28;19964;-68
2021/08/25 01:58:45;;;;;;;;;;;;;;;24.34;53.04;99535.09;2062433;28;20534;-68
2021/08/25 01:59:45;;;;;;;;;;;;;;;24.33;52.95;99544.41;2055670;28;19976;-68
2021/08/25 02:00:45;;;;;;;;;;;;;;;24.31;52.97;99546.50;2056943;28;19921;-68
2021/08/25 02:01:45;;;;;;;;;;;;;;;24.30;53.10;99544.81;2061234;28;20028;-67
2021/08/25 02:02:46;;;;;;;;;;;;;;;24.30;52.97;99546.69;2059480;28;19913;-67
2021/08/25 02:03:46;;;;;;;;;;;;;;;24.29;53.01;99539.50;2060721;28;20039;-68
2021/08/25 02:04:46;;;;;;;;;;;;;;;24.28;52.93;99544.16;2055794;28;20285;-67
2021/08/25 02:05:47;;;;;;;;;;;;;;;24.27;53.15;99545.19;2064293;28;19925;-67
2021/08/25 02:06:47;;;;;;;;;;;;;;;24.26;53.17;99535.22;2055812;28;19921;-67
2021/08/25 02:07:47;;;;;;;;;;;;;;;24.27;53.08;99541.59;2055595;28;20193;-68
2021/08/25 02:08:47;;;;;;;;;;;;;;;24.25;53.17;99544.53;2060060;28;19917;-68
2021/08/25 02:09:48;;;;;;;;;;;;;;;24.25;53.27;99544.53;2057272;28;19933;-68
2021/08/25 02:10:48;;;;;;;;;;;;;;;24.26;53.26;99545.41;2058138;28;20070;-68
2021/08/25 02:11:49;;;;;;;;;;;;;;;24.26;53.17;99546.25;2058352;28;20364;-68
2021/08/25 02:12:49;;;;;;;;;;;;;;;24.24;53.24;99537.31;2058067;28;19926;-68
2021/08/25 02:13:50;;;;;;;;;;;;;;;24.24;53.34;99539.25;2059428;28;19932;-68
2021/08/25 02:14:50;;;;;;;;;;;;;;;24.23;53.36;99541.16;2063575;28;19925;-68
2021/08/25 02:15:51;;;;;;;;;;;;;;;24.23;53.28;99534.75;2065602;28;19917;-67
2021/08/25 02:16:51;;;;;;;;;;;;;;;24.22;53.33;99528.41;2059351;28;19917;-68
2021/08/25 02:17:51;;;;;;;;;;;;;;;24.21;53.34;99532.22;2074899;28;20413;-68
2021/08/25 02:18:51;;;;;;;;;;;;;;;24.21;53.31;99534.97;2074210;28;20073;-68
2021/08/25 02:19:53;;;;;;;;;;;;;;;24.22;53.29;99528.41;2058752;28;19944;-68
2021/08/25 02:20:53;;;;;;;;;;;;;;;24.21;53.25;99531.38;2058779;28;19909;-68
2021/08/25 02:21:53;;;;;;;;;;;;;;;24.20;53.26;99525.00;2057380;28;19956;-68
2021/08/25 02:22:54;;;;;;;;;;;;;;;24.20;53.28;99536.00;2058804;28;19917;-68
2021/08/25 02:23:54;;;;;;;;;;;;;;;24.19;53.29;99534.31;2054752;28;19921;-68
2021/08/25 02:24:54;;;;;;;;;;;;;;;24.20;53.18;99535.16;2059064;28;19924;-68
2021/08/25 02:25:55;;;;;;;;;;;;;;;24.19;53.25;99534.31;2055913;28;19922;-68
2021/08/25 02:26:55;;;;;;;;;;;;;;;24.18;53.21;99538.13;2059964;28;19964;-68
2021/08/25 02:27:55;;;;;;;;;;;;;;;24.18;53.18;99538.13;2056490;28;19934;-62
2021/08/25 02:28:56;;;;;;;;;;;;;;;24.18;53.29;99538.97;2056103;28;19924;-62
2021/08/25 02:29:56;;;;;;;;;;;;;;;24.18;53.15;99540.88;2064609;28;19933;-62
2021/08/25 02:30:56;;;;;;;;;;;;;;;24.17;53.16;99536.41;2073881;28;20342;-62
2021/08/25 02:31:57;;;;;;;;;;;;;;;24.17;53.07;99536.41;2077883;28;19944;-62
2021/08/25 02:32:57;;;;;;;;;;;;;;;24.17;53.17;99541.91;2057603;28;20508;-62
2021/08/25 02:33:57;;;;;;;;;;;;;;;24.16;53.21;99545.72;2061893;28;20184;-62
2021/08/25 02:34:58;;;;;;;;;;;;;;;24.16;53.17;99542.97;2059367;28;20324;-62
2021/08/25 02:35:58;;;;;;;;;;;;;;;24.17;53.16;99548.28;2060178;28;20194;-62
2021/08/25 02:36:58;;;;;;;;;;;;;;;24.16;53.14;99545.72;2058365;28;19921;-62
2021/08/25 02:37:59;;;;;;;;;;;;;;;24.16;53.14;99546.56;2059903;28;19924;-61
2021/08/25 02:38:59;;;;;;;;;;;;;;;24.16;53.14;99542.97;2063871;28;19932;-62
2021/08/25 02:39:59;;;;;;;;;;;;;;;24.16;53.13;99545.72;2058724;28;19928;-62
2021/08/25 02:41:00;;;;;;;;;;;;;;;24.16;53.09;99551.25;2057805;28;20036;-68
2021/08/25 02:42:00;;;;;;;;;;;;;;;24.16;53.03;99541.06;2057918;28;19921;-68
2021/08/25 02:43:00;;;;;;;;;;;;;;;24.15;53.11;99538.50;2058757;28;19918;-68
2021/08/25 02:44:00;;;;;;;;;;;;;;;24.15;53.04;99549.50;2060857;28;20006;-68
2021/08/25 02:45:02;;;;;;;;;;;;;;;24.14;53.03;99545.91;2061055;28;19922;-68
2021/08/25 02:46:03;;;;;;;;;;;;;;;24.15;53.01;99552.28;2060655;28;19917;-68
2021/08/25 02:47:04;;;;;;;;;;;;;;;24.14;53.03;99548.66;2066560;28;19917;-68
2021/08/25 02:48:04;;;;;;;;;;;;;;;24.14;53.03;99547.81;2059071;28;19924;-68
2021/08/25 02:49:04;;;;;;;;;;;;;;;24.14;53.01;99545.06;2060842;28;19926;-68
2021/08/25 02:50:07;;;;;;;;;;;;;;;24.14;53.04;99547.81;2066899;28;19991;-68
2021/08/25 02:51:07;;;;;;;;;;;;;;;24.13;53.06;99546.09;2069396;28;20326;-68
2021/08/25 02:52:08;;;;;;;;;;;;;;;24.13;52.95;99551.59;2064596;28;19917;-68
2021/08/25 02:53:08;;;;;;;;;;;;;;;24.12;53.04;99556.28;2059541;28;19937;-68
2021/08/25 02:54:09;;;;;;;;;;;;;;;24.14;52.81;99564.34;2056875;28;19914;-68
2021/08/25 02:55:09;;;;;;;;;;;;;;;24.13;52.98;99562.63;2064829;28;20486;-68
2021/08/25 02:56:09;;;;;;;;;;;;;;;24.13;52.98;99563.50;2059764;28;20308;-68
2021/08/25 02:57:10;;;;;;;;;;;;;;;24.12;53.00;99558.19;2057341;28;19936;-68
2021/08/25 02:58:10;;;;;;;;;;;;;;;24.12;53.00;99558.19;2061787;28;20020;-68
2021/08/25 02:59:10;;;;;;;;;;;;;;;24.11;52.88;99559.25;2057619;28;19929;-68
2021/08/25 03:00:12;;;;;;;;;;;;;;;24.12;53.05;99560.94;2060614;28;19921;-68
2021/08/25 03:01:12;;;;;;;;;;;;;;;24.11;52.99;99559.25;2059737;28;20242;-68
2021/08/25 03:02:12;;;;;;;;;;;;;;;24.10;52.97;99552.84;2056665;28;19973;-68
2021/08/25 03:03:13;;;;;;;;;;;;;;;24.11;52.98;99554.56;2063668;28;19982;-68
2021/08/25 03:04:13;;;;;;;;;;;;;;;24.12;53.12;99555.41;2060959;28;19914;-68
2021/08/25 03:05:13;;;;;;;;;;;;;;;24.11;52.98;99559.25;2061282;28;19925;-68
2021/08/25 03:06:13;;;;;;;;;;;;;;;24.13;52.98;99559.88;2062346;28;20020;-68
2021/08/25 03:07:14;;;;;;;;;;;;;;;24.11;52.88;99559.25;2060385;28;19922;-67
2021/08/25 03:08:14;;;;;;;;;;;;;;;24.12;52.96;99566.44;2054654;28;19929;-67
2021/08/25 03:09:14;;;;;;;;;;;;;;;24.11;52.90;99553.72;2059389;28;20828;-68
2021/08/25 03:10:15;;;;;;;;;;;;;;;24.09;52.94;99547.56;2057434;28;19947;-68
2021/08/25 03:11:15;;;;;;;;;;;;;;;24.10;52.99;99546.50;2054689;28;19926;-68
2021/08/25 03:12:15;;;;;;;;;;;;;;;24.10;52.87;99546.50;2060245;28;19947;-68
2021/08/25 03:13:16;;;;;;;;;;;;;;;24.09;52.89;99544.81;2059438;28;19967;-68
2021/08/25 03:14:16;;;;;;;;;;;;;;;24.10;52.95;99546.50;2058455;28;19918;-68
2021/08/25 03:15:17;;;;;;;;;;;;;;;24.09;52.92;99539.31;2059243;28;20371;-68
2021/08/25 03:16:17;;;;;;;;;;;;;;;24.09;52.88;99539.31;2061367;28;20274;-68
2021/08/25 03:17:17;;;;;;;;;;;;;;;24.10;52.89;99546.50;2054950;28;19914;-68
2021/08/25 03:18:18;;;;;;;;;;;;;;;24.09;52.88;99542.06;2057991;28;20017;-68
2021/08/25 03:19:18;;;;;;;;;;;;;;;24.08;52.86;99538.47;2058925;28;20629;-68
2021/08/25 03:20:18;;;;;;;;;;;;;;;24.08;52.83;99532.06;2058033;28;20080;-68
2021/08/25 03:21:19;;;;;;;;;;;;;;;24.08;52.86;99532.06;2057842;28;19960;-67
2021/08/25 03:22:19;;;;;;;;;;;;;;;24.07;52.83;99535.88;2062154;28;19992;-68
2021/08/25 03:23:19;;;;;;;;;;;;;;;24.08;52.78;99537.56;2061044;28;19929;-68
2021/08/25 03:24:20;;;;;;;;;;;;;;;24.07;52.85;99536.72;2061019;28;19992;-68
2021/08/25 03:25:20;;;;;;;;;;;;;;;24.07;52.82;99536.72;2059477;28;19917;-68
2021/08/25 03:26:20;;;;;;;;;;;;;;;24.07;52.82;99536.72;2060296;28;20001;-68
2021/08/25 03:27:21;;;;;;;;;;;;;;;24.08;52.85;99537.56;2058513;28;19948;-68
2021/08/25 03:28:21;;;;;;;;;;;;;;;24.07;52.76;99535.88;2056492;28;20032;-68
2021/08/25 03:29:22;;;;;;;;;;;;;;;24.07;52.70;99533.13;2061470;28;19933;-68
2021/08/25 03:30:22;;;;;;;;;;;;;;;24.07;52.79;99533.13;2060317;28;20008;-69
2021/08/25 03:31:22;;;;;;;;;;;;;;;24.07;52.72;99524.88;2057054;28;20404;-67
2021/08/25 03:32:23;;;;;;;;;;;;;;;24.06;52.80;99529.53;2057373;28;19969;-67
2021/08/25 03:33:23;;;;;;;;;;;;;;;24.06;52.83;99523.19;2057892;28;19922;-68
2021/08/25 03:34:24;;;;;;;;;;;;;;;24.06;52.79;99528.69;2061527;28;19983;-67
2021/08/25 03:35:24;;;;;;;;;;;;;;;24.05;52.80;99526.97;2058956;28;19917;-68
2021/08/25 03:36:24;;;;;;;;;;;;;;;24.06;52.72;99525.94;2057244;28;20560;-68
2021/08/25 03:37:25;;;;;;;;;;;;;;;24.05;52.85;99526.97;2059408;28;19975;-68
2021/08/25 03:38:25;;;;;;;;;;;;;;;24.05;52.81;99524.22;2060010;28;20182;-67
2021/08/25 03:39:25;;;;;;;;;;;;;;;24.05;52.84;99522.31;2057086;28;19969;-67
2021/08/25 03:40:26;;;;;;;;;;;;;;;24.04;52.75;99525.28;2058762;28;20393;-68
2021/08/25 03:41:26;;;;;;;;;;;;;;;24.05;52.78;99518.72;2059006;28;19921;-68
2021/08/25 03:42:27;;;;;;;;;;;;;;;24.04;52.83;99519.78;2057273;28;19917;-68
2021/08/25 03:43:27;;;;;;;;;;;;;;;24.05;52.81;99518.72;2057003;28;19965;-68
2021/08/25 03:44:27;;;;;;;;;;;;;;;24.04;52.88;99522.53;2062705;28;19944;-68
2021/08/25 03:45:28;;;;;;;;;;;;;;;24.04;52.83;99515.13;2060050;28;20785;-67
2021/08/25 03:46:28;;;;;;;;;;;;;;;24.03;52.78;99513.38;2056903;28;19948;-68
2021/08/25 03:47:31;;;;;;;;;;;;;;;24.03;52.79;99507.03;2060621;28;19921;-67
2021/08/25 03:48:31;;;;;;;;;;;;;;;24.03;52.66;99513.38;2067397;28;19928;-67
2021/08/25 03:49:32;;;;;;;;;;;;;;;24.03;52.75;99507.03;2068206;28;19928;-68
2021/08/25 03:50:32;;;;;;;;;;;;;;;24.04;52.74;99503.25;2059970;28;19921;-68
2021/08/25 03:51:32;;;;;;;;;;;;;;;24.02;52.71;99499.84;2062527;28;19921;-67
2021/08/25 03:52:33;;;;;;;;;;;;;;;24.03;52.81;99505.13;2060561;28;19964;-67
2021/08/25 03:53:33;;;;;;;;;;;;;;;24.02;52.73;99499.84;2058209;28;20024;-68
2021/08/25 03:54:34;;;;;;;;;;;;;;;24.02;52.68;99503.44;2056888;28;20355;-67
2021/08/25 03:55:34;;;;;;;;;;;;;;;24.02;52.71;99502.59;2058924;28;19921;-67
2021/08/25 03:56:34;;;;;;;;;;;;;;;24.02;52.70;99500.69;2056929;28;19933;-68
2021/08/25 03:57:35;;;;;;;;;;;;;;;24.01;52.81;99492.63;2056926;28;19926;-67
2021/08/25 03:58:35;;;;;;;;;;;;;;;24.02;52.72;99494.34;2054839;28;19917;-68
2021/08/25 03:59:36;;;;;;;;;;;;;;;24.02;52.95;99494.34;2055033;28;19917;-68
2021/08/25 04:00:36;;;;;;;;;;;;;;;24.02;52.71;99497.09;2056309;28;19917;-68
2021/08/25 04:01:36;;;;;;;;;;;;;;;24.01;52.68;99492.63;2057670;28;19972;-68
2021/08/25 04:02:37;;;;;;;;;;;;;;;24.01;52.68;99487.97;2058775;28;20747;-68
2021/08/25 04:03:37;;;;;;;;;;;;;;;24.01;52.61;99489.84;2071663;28;19924;-68
2021/08/25 04:04:37;;;;;;;;;;;;;;;24.01;52.75;99492.63;2072365;28;19917;-68
2021/08/25 04:05:38;;;;;;;;;;;;;;;24.00;52.71;99490.91;2054879;28;19917;-68
2021/08/25 04:06:38;;;;;;;;;;;;;;;24.00;52.69;99485.41;2057153;28;20399;-68
2021/08/25 04:07:38;;;;;;;;;;;;;;;24.00;52.67;99480.75;2054503;28;19916;-68
2021/08/25 04:08:39;;;;;;;;;;;;;;;24.00;52.36;99490.91;2055649;28;19913;-68
2021/08/25 04:09:40;;;;;;;;;;;;;;;24.00;52.60;99485.41;2058989;28;20444;-68
2021/08/25 04:10:40;;;;;;;;;;;;;;;24.00;52.63;99474.41;2056864;28;19921;-67
2021/08/25 04:11:41;;;;;;;;;;;;;;;24.00;52.63;99485.41;2059413;28;20384;-68
2021/08/25 04:12:41;;;;;;;;;;;;;;;23.99;52.62;99483.72;2059412;28;19921;-68
2021/08/25 04:13:41;;;;;;;;;;;;;;;24.00;52.69;99485.41;2056001;28;19921;-68
2021/08/25 04:14:41;;;;;;;;;;;;;;;23.99;52.71;99478.22;2066677;28;20008;-68
2021/08/25 04:15:42;;;;;;;;;;;;;;;24.00;52.58;99485.41;2065467;28;19905;-68
2021/08/25 04:16:42;;;;;;;;;;;;;;;23.99;52.60;99483.72;2054107;28;20144;-67
2021/08/25 04:17:42;;;;;;;;;;;;;;;23.99;52.64;99483.72;2054992;28;19936;-68
2021/08/25 04:18:43;;;;;;;;;;;;;;;23.98;52.64;99480.09;2058567;28;19923;-68
2021/08/25 04:19:43;;;;;;;;;;;;;;;23.98;52.66;99488.34;2058904;28;19917;-68
2021/08/25 04:20:43;;;;;;;;;;;;;;;23.98;52.56;99485.59;2056362;28;20506;-68
2021/08/25 04:21:43;;;;;;;;;;;;;;;23.97;52.61;99486.66;2060211;28;20459;-68
2021/08/25 04:22:44;;;;;;;;;;;;;;;23.99;52.64;99486.47;2058580;28;19917;-68
2021/08/25 04:23:44;;;;;;;;;;;;;;;23.98;52.61;99477.34;2058792;28;19917;-68
2021/08/25 04:24:44;;;;;;;;;;;;;;;23.97;52.57;99481.16;2058311;28;20388;-68
2021/08/25 04:25:45;;;;;;;;;;;;;;;23.98;52.61;99479.25;2055544;28;19917;-68
2021/08/25 04:26:45;;;;;;;;;;;;;;;23.97;52.57;99486.66;2056924;28;19929;-68
2021/08/25 04:27:45;;;;;;;;;;;;;;;23.98;52.60;99487.50;2057083;28;19925;-68
2021/08/25 04:28:46;;;;;;;;;;;;;;;23.96;52.54;99485.81;2058901;28;19963;-68
2021/08/25 04:29:46;;;;;;;;;;;;;;;23.98;52.51;99493.00;2057274;28;19957;-69
2021/08/25 04:30:47;;;;;;;;;;;;;;;23.97;52.55;99492.16;2056376;28;19940;-68
2021/08/25 04:31:47;;;;;;;;;;;;;;;23.98;52.58;99498.53;2058059;28;20367;-68
2021/08/25 04:32:47;;;;;;;;;;;;;;;23.97;52.58;99503.19;2057535;28;19969;-68
2021/08/25 04:33:48;;;;;;;;;;;;;;;23.96;52.50;99496.81;2057855;28;19918;-68
2021/08/25 04:34:48;;;;;;;;;;;;;;;23.97;52.73;99503.19;2059789;28;19976;-68
2021/08/25 04:35:48;;;;;;;;;;;;;;;23.96;52.50;99496.81;2054096;28;20670;-68
2021/08/25 04:36:49;;;;;;;;;;;;;;;23.96;52.53;99496.81;2059672;28;19991;-68
2021/08/25 04:37:49;;;;;;;;;;;;;;;23.98;52.55;99504.03;2059230;28;19937;-68
2021/08/25 04:38:49;;;;;;;;;;;;;;;23.96;52.65;99495.97;2061518;28;20377;-68
2021/08/25 04:39:50;;;;;;;;;;;;;;;23.95;52.62;99503.34;2057150;28;19921;-67
2021/08/25 04:40:50;;;;;;;;;;;;;;;23.94;52.52;99498.91;2057504;28;19929;-68
2021/08/25 04:41:50;;;;;;;;;;;;;;;23.95;52.57;99503.34;2053987;28;20981;-68
2021/08/25 04:42:51;;;;;;;;;;;;;;;23.95;52.62;99497.84;2058660;28;19917;-68
2021/08/25 04:43:51;;;;;;;;;;;;;;;23.95;52.56;99503.34;2067114;28;19924;-68
2021/08/25 04:44:51;;;;;;;;;;;;;;;23.94;52.57;99501.66;2068192;28;20416;-68
2021/08/25 04:45:51;;;;;;;;;;;;;;;23.95;52.63;99508.03;2055891;28;20888;-68
2021/08/25 04:46:52;;;;;;;;;;;;;;;23.96;52.57;99507.00;2059979;28;19917;-68
2021/08/25 04:47:52;;;;;;;;;;;;;;;23.95;52.55;99511.63;2057193;28;20043;-68
2021/08/25 04:48:52;;;;;;;;;;;;;;;23.95;52.50;99513.53;2056796;28;19925;-68
2021/08/25 04:49:53;;;;;;;;;;;;;;;23.94;52.54;99509.94;2066338;28;19921;-68
2021/08/25 04:50:54;;;;;;;;;;;;;;;23.94;52.45;99506.34;2066232;28;20044;-68
2021/08/25 04:51:54;;;;;;;;;;;;;;;23.94;52.52;99504.44;2067721;28;19913;-68
2021/08/25 04:52:54;;;;;;;;;;;;;;;23.94;52.43;99515.44;2067385;28;19921;-69
2021/08/25 04:53:54;;;;;;;;;;;;;;;23.94;52.48;99509.94;2054813;28;20224;-68
2021/08/25 04:54:55;;;;;;;;;;;;;;;23.94;52.48;99515.44;2060116;28;19992;-67
2021/08/25 04:55:55;;;;;;;;;;;;;;;23.93;52.52;99508.25;2057941;28;19917;-68
2021/08/25 04:56:55;;;;;;;;;;;;;;;23.93;52.52;99519.25;2055508;28;20420;-68
2021/08/25 04:57:56;;;;;;;;;;;;;;;23.93;52.52;99513.75;2060174;28;20861;-68
2021/08/25 04:58:56;;;;;;;;;;;;;;;23.93;52.51;99513.75;2060747;28;20016;-68
2021/08/25 04:59:56;;;;;;;;;;;;;;;23.93;52.54;99522.00;2059524;28;19914;-68
2021/08/25 05:00:57;;;;;;;;;;;;;;;23.92;52.51;99525.78;2058128;28;20154;-68
2021/08/25 05:01:57;;;;;;;;;;;;;;;23.92;52.56;99522.19;2074608;28;20141;-68
2021/08/25 05:02:57;;;;;;;;;;;;;;;23.91;52.49;99518.59;2072352;28;19999;-68
2021/08/25 05:03:58;;;;;;;;;;;;;;;23.93;52.52;99518.38;2057056;28;19956;-68
2021/08/25 05:04:58;;;;;;;;;;;;;;;23.93;52.54;99523.88;2060792;28;19967;-68
2021/08/25 05:05:58;;;;;;;;;;;;;;;23.92;52.53;99523.03;2057063;28;19961;-68
2021/08/25 05:06:59;;;;;;;;;;;;;;;23.92;52.50;99523.03;2058227;28;19980;-68
2021/08/25 05:07:59;;;;;;;;;;;;;;;23.92;52.46;99517.53;2073340;28;19916;-68
2021/08/25 05:08:59;;;;;;;;;;;;;;;23.92;52.56;99523.03;2072927;28;19928;-69
2021/08/25 05:09:59;;;;;;;;;;;;;;;23.92;52.50;99522.19;2059800;28;20025;-68
2021/08/25 05:11:00;;;;;;;;;;;;;;;23.91;52.54;99518.59;2056888;28;19975;-68
2021/08/25 05:12:00;;;;;;;;;;;;;;;23.91;52.48;99517.72;2059144;28;19928;-68
2021/08/25 05:13:00;;;;;;;;;;;;;;;23.92;52.51;99523.03;2056043;28;19937;-68
2021/08/25 05:14:01;;;;;;;;;;;;;;;23.91;52.51;99520.47;2057416;28;19929;-68
2021/08/25 05:15:01;;;;;;;;;;;;;;;23.91;52.50;99521.34;2060055;28;19940;-68
2021/08/25 05:16:01;;;;;;;;;;;;;;;23.91;52.49;99518.59;2057808;28;19921;-68